sensor_id;sensor_type;location;lat;lon;timestamp;temperature;humidity
22765;DHT22;11549;50.852;3.816;2022-09-09T00:00:56;15.80;99.90
22765;DHT22;11549;50.852;3.816;2022-09-09T00:03:34;15.80;99.90
22765;DHT22;11549;50.852;3.816;2022-09-09T00:06:10;15.80;99.90
22765;DHT22;11549;50.852;3.816;2022-09-09T00:08:51;15.80;99.90
22765;DHT22;11549;50.852;3.816;2022-09-09T00:11:32;15.80;99.90
22765;DHT22;11549;50.852;3.816;2022-09-09T00:14:11;15.80;99.90
22765;DHT22;11549;50.852;3.816;2022-09-09T00:16:43;15.80;99.90
22765;DHT22;11549;50.852;3.816;2022-09-09T00:19:20;15.60;99.90
22765;DHT22;11549;50.852;3.816;2022-09-09T00:21:58;15.70;99.90
22765;DHT22;11549;50.852;3.816;2022-09-09T00:24:32;15.70;99.90
22765;DHT22;11549;50.852;3.816;2022-09-09T00:27:07;15.70;99.90
22765;DHT22;11549;50.852;3.816;2022-09-09T00:29:38;15.80;99.90
22765;DHT22;11549;50.852;3.816;2022-09-09T00:32:13;15.70;99.90
22765;DHT22;11549;50.852;3.816;2022-09-09T00:34:48;15.70;99.90
22765;DHT22;11549;50.852;3.816;2022-09-09T00:37:21;15.80;99.90
22765;DHT22;11549;50.852;3.816;2022-09-09T00:39:52;15.70;99.90
22765;DHT22;11549;50.852;3.816;2022-09-09T00:42:25;15.70;99.90
22765;DHT22;11549;50.852;3.816;2022-09-09T00:45:00;15.60;99.90
22765;DHT22;11549;50.852;3.816;2022-09-09T00:47:41;15.60;99.90
22765;DHT22;11549;50.852;3.816;2022-09-09T00:50:29;15.60;99.90
22765;DHT22;11549;50.852;3.816;2022-09-09T00:53:13;15.60;99.90
22765;DHT22;11549;50.852;3.816;2022-09-09T00:55:49;15.60;99.90
22765;DHT22;11549;50.852;3.816;2022-09-09T00:58:21;15.40;99.90
22765;DHT22;11549;50.852;3.816;2022-09-09T01:00:52;15.50;99.90
22765;DHT22;11549;50.852;3.816;2022-09-09T01:03:33;15.50;99.90
22765;DHT22;11549;50.852;3.816;2022-09-09T01:06:12;15.60;99.90
22765;DHT22;11549;50.852;3.816;2022-09-09T01:09:07;15.50;99.90
22765;DHT22;11549;50.852;3.816;2022-09-09T01:11:49;15.50;99.90
22765;DHT22;11549;50.852;3.816;2022-09-09T01:14:27;15.60;99.90
22765;DHT22;11549;50.852;3.816;2022-09-09T01:17:00;15.60;99.90
22765;DHT22;11549;50.852;3.816;2022-09-09T01:19:40;15.50;99.90
22765;DHT22;11549;50.852;3.816;2022-09-09T01:22:21;15.60;99.90
22765;DHT22;11549;50.852;3.816;2022-09-09T01:25:07;15.60;99.90
22765;DHT22;11549;50.852;3.816;2022-09-09T01:27:42;15.60;99.90
22765;DHT22;11549;50.852;3.816;2022-09-09T01:30:12;15.60;99.90
22765;DHT22;11549;50.852;3.816;2022-09-09T01:32:44;15.50;99.90
22765;DHT22;11549;50.852;3.816;2022-09-09T01:35:26;15.50;99.90
22765;DHT22;11549;50.852;3.816;2022-09-09T01:37:56;15.40;99.90
22765;DHT22;11549;50.852;3.816;2022-09-09T01:40:25;15.40;99.90
22765;DHT22;11549;50.852;3.816;2022-09-09T01:42:55;15.40;99.90
22765;DHT22;11549;50.852;3.816;2022-09-09T01:45:24;15.50;99.90
22765;DHT22;11549;50.852;3.816;2022-09-09T01:47:53;15.40;99.90
22765;DHT22;11549;50.852;3.816;2022-09-09T01:50:21;15.40;99.90
22765;DHT22;11549;50.852;3.816;2022-09-09T01:52:53;15.50;99.90
22765;DHT22;11549;50.852;3.816;2022-09-09T01:55:28;15.40;99.90
22765;DHT22;11549;50.852;3.816;2022-09-09T01:58:18;15.40;99.90
22765;DHT22;11549;50.852;3.816;2022-09-09T02:00:55;15.40;99.90
22765;DHT22;11549;50.852;3.816;2022-09-09T02:03:27;15.50;99.90
22765;DHT22;11549;50.852;3.816;2022-09-09T02:06:03;15.50;99.90
22765;DHT22;11549;50.852;3.816;2022-09-09T02:08:39;15.50;99.90
22765;DHT22;11549;50.852;3.816;2022-09-09T02:11:12;15.50;99.90
22765;DHT22;11549;50.852;3.816;2022-09-09T02:13:44;15.40;99.90
22765;DHT22;11549;50.852;3.816;2022-09-09T02:16:17;15.50;99.90
22765;DHT22;11549;50.852;3.816;2022-09-09T02:18:50;15.50;99.90
22765;DHT22;11549;50.852;3.816;2022-09-09T02:21:20;15.40;99.90
22765;DHT22;11549;50.852;3.816;2022-09-09T02:23:50;15.40;99.90
22765;DHT22;11549;50.852;3.816;2022-09-09T02:26:24;15.40;99.90
22765;DHT22;11549;50.852;3.816;2022-09-09T02:28:58;15.50;99.90
22765;DHT22;11549;50.852;3.816;2022-09-09T02:31:27;15.60;99.90
22765;DHT22;11549;50.852;3.816;2022-09-09T02:33:58;15.50;99.90
22765;DHT22;11549;50.852;3.816;2022-09-09T02:36:32;15.60;99.90
22765;DHT22;11549;50.852;3.816;2022-09-09T02:39:05;15.50;99.90
22765;DHT22;11549;50.852;3.816;2022-09-09T02:41:37;15.50;99.90
22765;DHT22;11549;50.852;3.816;2022-09-09T02:44:10;15.50;99.90
22765;DHT22;11549;50.852;3.816;2022-09-09T02:47:06;15.60;99.90
22765;DHT22;11549;50.852;3.816;2022-09-09T02:49:45;15.60;99.90
22765;DHT22;11549;50.852;3.816;2022-09-09T02:52:20;15.60;99.90
22765;DHT22;11549;50.852;3.816;2022-09-09T02:54:51;15.50;99.90
22765;DHT22;11549;50.852;3.816;2022-09-09T02:57:25;15.50;99.90
22765;DHT22;11549;50.852;3.816;2022-09-09T02:59:57;15.60;99.90
22765;DHT22;11549;50.852;3.816;2022-09-09T03:02:25;15.60;99.90
22765;DHT22;11549;50.852;3.816;2022-09-09T03:04:54;15.60;99.90
22765;DHT22;11549;50.852;3.816;2022-09-09T03:07:23;15.60;99.90
22765;DHT22;11549;50.852;3.816;2022-09-09T03:09:51;15.60;99.90
22765;DHT22;11549;50.852;3.816;2022-09-09T03:12:21;15.60;99.90
22765;DHT22;11549;50.852;3.816;2022-09-09T03:14:50;15.60;99.90
22765;DHT22;11549;50.852;3.816;2022-09-09T03:17:20;15.70;99.90
22765;DHT22;11549;50.852;3.816;2022-09-09T03:19:48;15.60;99.90
22765;DHT22;11549;50.852;3.816;2022-09-09T03:22:19;15.70;99.90
22765;DHT22;11549;50.852;3.816;2022-09-09T03:24:48;15.70;99.90
22765;DHT22;11549;50.852;3.816;2022-09-09T03:27:16;15.70;99.90
22765;DHT22;11549;50.852;3.816;2022-09-09T03:29:44;15.80;99.90
22765;DHT22;11549;50.852;3.816;2022-09-09T03:32:13;15.60;99.90
22765;DHT22;11549;50.852;3.816;2022-09-09T03:34:43;15.70;99.90
22765;DHT22;11549;50.852;3.816;2022-09-09T03:37:17;15.70;99.90
22765;DHT22;11549;50.852;3.816;2022-09-09T03:39:45;15.80;99.90
22765;DHT22;11549;50.852;3.816;2022-09-09T03:42:15;15.90;99.90
22765;DHT22;11549;50.852;3.816;2022-09-09T03:44:45;15.90;99.90
22765;DHT22;11549;50.852;3.816;2022-09-09T03:47:17;15.80;99.90
22765;DHT22;11549;50.852;3.816;2022-09-09T03:49:47;15.80;99.90
22765;DHT22;11549;50.852;3.816;2022-09-09T03:52:16;15.80;99.90
22765;DHT22;11549;50.852;3.816;2022-09-09T03:54:49;15.80;99.90
22765;DHT22;11549;50.852;3.816;2022-09-09T03:57:18;15.90;99.90
22765;DHT22;11549;50.852;3.816;2022-09-09T03:59:46;15.80;99.90
22765;DHT22;11549;50.852;3.816;2022-09-09T04:02:15;16.00;99.90
22765;DHT22;11549;50.852;3.816;2022-09-09T04:04:43;15.90;99.90
22765;DHT22;11549;50.852;3.816;2022-09-09T04:07:13;15.90;99.90
22765;DHT22;11549;50.852;3.816;2022-09-09T04:09:42;16.00;99.90
22765;DHT22;11549;50.852;3.816;2022-09-09T04:12:11;16.00;99.90
22765;DHT22;11549;50.852;3.816;2022-09-09T04:14:40;16.00;99.90
22765;DHT22;11549;50.852;3.816;2022-09-09T04:17:08;15.90;99.90
22765;DHT22;11549;50.852;3.816;2022-09-09T04:19:36;16.00;99.90
22765;DHT22;11549;50.852;3.816;2022-09-09T04:22:20;15.90;99.90
22765;DHT22;11549;50.852;3.816;2022-09-09T04:24:49;15.90;99.90
22765;DHT22;11549;50.852;3.816;2022-09-09T04:27:17;15.70;99.90
22765;DHT22;11549;50.852;3.816;2022-09-09T04:29:46;15.80;99.90
22765;DHT22;11549;50.852;3.816;2022-09-09T04:32:14;15.80;99.90
22765;DHT22;11549;50.852;3.816;2022-09-09T04:34:42;15.90;99.90
22765;DHT22;11549;50.852;3.816;2022-09-09T04:37:11;15.90;99.90
22765;DHT22;11549;50.852;3.816;2022-09-09T04:39:42;15.80;99.90
22765;DHT22;11549;50.852;3.816;2022-09-09T04:42:11;15.80;99.90
22765;DHT22;11549;50.852;3.816;2022-09-09T04:44:39;15.90;99.90
22765;DHT22;11549;50.852;3.816;2022-09-09T04:47:09;16.00;99.90
22765;DHT22;11549;50.852;3.816;2022-09-09T04:49:37;15.90;99.90
22765;DHT22;11549;50.852;3.816;2022-09-09T04:52:06;15.90;99.90
22765;DHT22;11549;50.852;3.816;2022-09-09T04:54:34;16.00;99.90
22765;DHT22;11549;50.852;3.816;2022-09-09T04:57:04;16.00;99.90
22765;DHT22;11549;50.852;3.816;2022-09-09T04:59:33;15.90;99.90
22765;DHT22;11549;50.852;3.816;2022-09-09T05:02:02;15.90;99.90
22765;DHT22;11549;50.852;3.816;2022-09-09T05:04:30;16.00;99.90
22765;DHT22;11549;50.852;3.816;2022-09-09T05:07:00;16.00;99.90
22765;DHT22;11549;50.852;3.816;2022-09-09T05:09:28;16.00;99.90
22765;DHT22;11549;50.852;3.816;2022-09-09T05:11:57;16.00;99.90
22765;DHT22;11549;50.852;3.816;2022-09-09T05:14:27;16.10;99.90
22765;DHT22;11549;50.852;3.816;2022-09-09T05:16:55;16.10;99.90
22765;DHT22;11549;50.852;3.816;2022-09-09T05:19:24;16.10;99.90
22765;DHT22;11549;50.852;3.816;2022-09-09T05:21:53;16.10;99.90
22765;DHT22;11549;50.852;3.816;2022-09-09T05:24:21;16.10;99.90
22765;DHT22;11549;50.852;3.816;2022-09-09T05:26:50;16.10;99.90
22765;DHT22;11549;50.852;3.816;2022-09-09T05:29:18;16.10;99.90
22765;DHT22;11549;50.852;3.816;2022-09-09T05:31:48;16.00;99.90
22765;DHT22;11549;50.852;3.816;2022-09-09T05:34:17;16.00;99.90
22765;DHT22;11549;50.852;3.816;2022-09-09T05:36:46;15.90;99.90
22765;DHT22;11549;50.852;3.816;2022-09-09T05:39:15;15.90;99.90
22765;DHT22;11549;50.852;3.816;2022-09-09T05:41:43;15.90;99.90
22765;DHT22;11549;50.852;3.816;2022-09-09T05:44:12;16.00;99.90
22765;DHT22;11549;50.852;3.816;2022-09-09T05:46:41;16.00;99.90
22765;DHT22;11549;50.852;3.816;2022-09-09T05:49:11;16.00;99.90
22765;DHT22;11549;50.852;3.816;2022-09-09T05:51:39;16.00;99.90
22765;DHT22;11549;50.852;3.816;2022-09-09T05:54:09;16.10;99.90
22765;DHT22;11549;50.852;3.816;2022-09-09T05:56:40;16.10;99.90
22765;DHT22;11549;50.852;3.816;2022-09-09T05:59:09;16.20;99.90
22765;DHT22;11549;50.852;3.816;2022-09-09T06:01:38;16.10;99.90
22765;DHT22;11549;50.852;3.816;2022-09-09T06:04:09;16.00;99.90
22765;DHT22;11549;50.852;3.816;2022-09-09T06:06:38;16.00;99.90
22765;DHT22;11549;50.852;3.816;2022-09-09T06:09:09;16.00;99.90
22765;DHT22;11549;50.852;3.816;2022-09-09T06:11:39;16.10;99.90
22765;DHT22;11549;50.852;3.816;2022-09-09T06:14:08;16.10;99.90
22765;DHT22;11549;50.852;3.816;2022-09-09T06:16:37;16.10;99.90
22765;DHT22;11549;50.852;3.816;2022-09-09T06:19:05;16.10;99.90
22765;DHT22;11549;50.852;3.816;2022-09-09T06:21:36;16.10;99.90
22765;DHT22;11549;50.852;3.816;2022-09-09T06:24:05;16.10;99.90
22765;DHT22;11549;50.852;3.816;2022-09-09T06:26:35;16.10;99.90
22765;DHT22;11549;50.852;3.816;2022-09-09T06:29:04;16.00;99.90
22765;DHT22;11549;50.852;3.816;2022-09-09T06:31:34;16.10;99.90
22765;DHT22;11549;50.852;3.816;2022-09-09T06:34:05;16.10;99.90
22765;DHT22;11549;50.852;3.816;2022-09-09T06:36:37;16.20;99.90
22765;DHT22;11549;50.852;3.816;2022-09-09T06:39:07;16.30;99.90
22765;DHT22;11549;50.852;3.816;2022-09-09T06:41:41;16.30;99.90
22765;DHT22;11549;50.852;3.816;2022-09-09T06:44:10;16.30;99.90
22765;DHT22;11549;50.852;3.816;2022-09-09T06:46:39;16.30;99.90
22765;DHT22;11549;50.852;3.816;2022-09-09T06:49:08;16.40;99.90
22765;DHT22;11549;50.852;3.816;2022-09-09T06:51:38;16.30;99.90
22765;DHT22;11549;50.852;3.816;2022-09-09T06:54:10;16.30;99.90
22765;DHT22;11549;50.852;3.816;2022-09-09T06:56:40;16.30;99.90
22765;DHT22;11549;50.852;3.816;2022-09-09T06:59:11;16.30;99.90
22765;DHT22;11549;50.852;3.816;2022-09-09T07:01:41;16.30;99.90
22765;DHT22;11549;50.852;3.816;2022-09-09T07:04:10;16.30;99.90
22765;DHT22;11549;50.852;3.816;2022-09-09T07:06:43;16.20;99.90
22765;DHT22;11549;50.852;3.816;2022-09-09T07:09:14;16.20;99.90
22765;DHT22;11549;50.852;3.816;2022-09-09T07:11:45;16.30;99.90
22765;DHT22;11549;50.852;3.816;2022-09-09T07:14:13;16.40;99.90
22765;DHT22;11549;50.852;3.816;2022-09-09T07:16:42;16.40;99.90
22765;DHT22;11549;50.852;3.816;2022-09-09T07:19:11;16.30;99.90
22765;DHT22;11549;50.852;3.816;2022-09-09T07:21:43;16.30;99.90
22765;DHT22;11549;50.852;3.816;2022-09-09T07:24:12;16.40;99.90
22765;DHT22;11549;50.852;3.816;2022-09-09T07:26:41;16.40;99.90
22765;DHT22;11549;50.852;3.816;2022-09-09T07:29:09;16.50;99.90
22765;DHT22;11549;50.852;3.816;2022-09-09T07:31:46;16.60;99.90
22765;DHT22;11549;50.852;3.816;2022-09-09T07:34:15;16.60;99.90
22765;DHT22;11549;50.852;3.816;2022-09-09T07:36:45;16.70;99.90
22765;DHT22;11549;50.852;3.816;2022-09-09T07:39:14;16.70;99.90
22765;DHT22;11549;50.852;3.816;2022-09-09T07:41:45;16.80;99.90
22765;DHT22;11549;50.852;3.816;2022-09-09T07:44:16;16.90;99.90
22765;DHT22;11549;50.852;3.816;2022-09-09T07:46:45;16.90;99.90
22765;DHT22;11549;50.852;3.816;2022-09-09T07:49:14;17.00;99.90
22765;DHT22;11549;50.852;3.816;2022-09-09T07:51:55;16.90;99.90
22765;DHT22;11549;50.852;3.816;2022-09-09T07:54:23;16.90;99.90
22765;DHT22;11549;50.852;3.816;2022-09-09T07:56:53;16.80;99.90
22765;DHT22;11549;50.852;3.816;2022-09-09T07:59:21;16.70;99.90
22765;DHT22;11549;50.852;3.816;2022-09-09T08:01:53;16.70;99.90
22765;DHT22;11549;50.852;3.816;2022-09-09T08:04:23;16.70;99.90
22765;DHT22;11549;50.852;3.816;2022-09-09T08:06:56;16.70;99.90
22765;DHT22;11549;50.852;3.816;2022-09-09T08:09:26;16.70;99.90
22765;DHT22;11549;50.852;3.816;2022-09-09T08:11:56;16.70;99.90
22765;DHT22;11549;50.852;3.816;2022-09-09T08:14:25;16.70;99.90
22765;DHT22;11549;50.852;3.816;2022-09-09T08:16:53;16.70;99.90
22765;DHT22;11549;50.852;3.816;2022-09-09T08:19:23;16.60;99.90
22765;DHT22;11549;50.852;3.816;2022-09-09T08:21:51;16.80;99.90
22765;DHT22;11549;50.852;3.816;2022-09-09T08:24:22;16.70;99.90
22765;DHT22;11549;50.852;3.816;2022-09-09T08:26:51;16.70;99.90
22765;DHT22;11549;50.852;3.816;2022-09-09T08:29:20;16.60;99.90
22765;DHT22;11549;50.852;3.816;2022-09-09T08:31:49;16.70;99.90
22765;DHT22;11549;50.852;3.816;2022-09-09T08:34:20;16.70;99.90
22765;DHT22;11549;50.852;3.816;2022-09-09T08:36:49;16.70;99.90
22765;DHT22;11549;50.852;3.816;2022-09-09T08:39:20;16.60;99.90
22765;DHT22;11549;50.852;3.816;2022-09-09T08:47:54;16.70;99.90
22765;DHT22;11549;50.852;3.816;2022-09-09T08:50:29;16.90;99.90
22765;DHT22;11549;50.852;3.816;2022-09-09T08:53:02;16.90;99.90
22765;DHT22;11549;50.852;3.816;2022-09-09T08:55:39;16.90;99.90
22765;DHT22;11549;50.852;3.816;2022-09-09T08:58:14;16.90;99.90
22765;DHT22;11549;50.852;3.816;2022-09-09T09:01:09;17.00;99.90
22765;DHT22;11549;50.852;3.816;2022-09-09T09:03:54;17.00;99.90
22765;DHT22;11549;50.852;3.816;2022-09-09T09:06:35;17.10;99.90
22765;DHT22;11549;50.852;3.816;2022-09-09T09:09:11;17.10;99.90
22765;DHT22;11549;50.852;3.816;2022-09-09T09:11:48;17.00;99.90
22765;DHT22;11549;50.852;3.816;2022-09-09T09:14:21;17.00;99.90
22765;DHT22;11549;50.852;3.816;2022-09-09T09:16:54;17.00;99.90
22765;DHT22;11549;50.852;3.816;2022-09-09T09:19:24;17.00;99.90
22765;DHT22;11549;50.852;3.816;2022-09-09T09:21:58;17.00;99.90
22765;DHT22;11549;50.852;3.816;2022-09-09T09:24:35;17.10;99.90
22765;DHT22;11549;50.852;3.816;2022-09-09T09:27:13;17.00;99.90
22765;DHT22;11549;50.852;3.816;2022-09-09T09:29:44;17.10;99.90
22765;DHT22;11549;50.852;3.816;2022-09-09T09:32:34;17.30;99.90
22765;DHT22;11549;50.852;3.816;2022-09-09T09:35:10;17.40;99.90
22765;DHT22;11549;50.852;3.816;2022-09-09T09:37:41;17.60;99.90
22765;DHT22;11549;50.852;3.816;2022-09-09T09:40:30;17.80;99.90
22765;DHT22;11549;50.852;3.816;2022-09-09T09:43:01;17.80;99.90
22765;DHT22;11549;50.852;3.816;2022-09-09T09:45:41;17.90;99.90
22765;DHT22;11549;50.852;3.816;2022-09-09T09:48:31;18.00;99.90
22765;DHT22;11549;50.852;3.816;2022-09-09T09:51:02;18.10;99.90
22765;DHT22;11549;50.852;3.816;2022-09-09T09:53:38;18.10;99.90
22765;DHT22;11549;50.852;3.816;2022-09-09T09:56:09;18.10;99.90
22765;DHT22;11549;50.852;3.816;2022-09-09T09:58:49;18.30;99.90
22765;DHT22;11549;50.852;3.816;2022-09-09T10:01:22;18.10;99.90
22765;DHT22;11549;50.852;3.816;2022-09-09T10:03:53;18.00;99.90
22765;DHT22;11549;50.852;3.816;2022-09-09T10:06:32;18.00;99.90
22765;DHT22;11549;50.852;3.816;2022-09-09T10:09:02;17.90;99.90
22765;DHT22;11549;50.852;3.816;2022-09-09T10:11:44;18.00;99.90
22765;DHT22;11549;50.852;3.816;2022-09-09T10:14:20;18.00;99.90
22765;DHT22;11549;50.852;3.816;2022-09-09T10:17:07;18.10;99.90
22765;DHT22;11549;50.852;3.816;2022-09-09T10:19:44;18.00;99.90
22765;DHT22;11549;50.852;3.816;2022-09-09T10:22:26;18.10;99.90
22765;DHT22;11549;50.852;3.816;2022-09-09T10:25:09;18.10;99.90
22765;DHT22;11549;50.852;3.816;2022-09-09T10:27:52;18.30;99.90
22765;DHT22;11549;50.852;3.816;2022-09-09T10:30:37;18.40;99.90
22765;DHT22;11549;50.852;3.816;2022-09-09T10:33:16;18.50;99.90
22765;DHT22;11549;50.852;3.816;2022-09-09T10:35:53;18.50;99.90
22765;DHT22;11549;50.852;3.816;2022-09-09T10:38:28;18.50;99.90
22765;DHT22;11549;50.852;3.816;2022-09-09T10:41:12;18.50;99.90
22765;DHT22;11549;50.852;3.816;2022-09-09T10:53:22;18.90;99.90
22765;DHT22;11549;50.852;3.816;2022-09-09T10:55:55;19.10;99.90
22765;DHT22;11549;50.852;3.816;2022-09-09T10:58:25;19.30;99.90
22765;DHT22;11549;50.852;3.816;2022-09-09T11:00:59;19.40;99.90
22765;DHT22;11549;50.852;3.816;2022-09-09T11:03:31;19.30;99.90
22765;DHT22;11549;50.852;3.816;2022-09-09T11:06:05;19.30;99.90
22765;DHT22;11549;50.852;3.816;2022-09-09T11:08:37;19.30;99.90
22765;DHT22;11549;50.852;3.816;2022-09-09T11:11:11;19.30;99.90
22765;DHT22;11549;50.852;3.816;2022-09-09T11:13:45;19.20;99.90
22765;DHT22;11549;50.852;3.816;2022-09-09T11:16:24;19.10;99.90
22765;DHT22;11549;50.852;3.816;2022-09-09T11:18:57;19.00;99.90
22765;DHT22;11549;50.852;3.816;2022-09-09T11:21:32;19.00;99.90
22765;DHT22;11549;50.852;3.816;2022-09-09T11:24:04;19.10;99.90
22765;DHT22;11549;50.852;3.816;2022-09-09T11:26:38;19.00;99.90
22765;DHT22;11549;50.852;3.816;2022-09-09T11:29:21;19.10;99.90
22765;DHT22;11549;50.852;3.816;2022-09-09T11:32:04;19.00;99.90
22765;DHT22;11549;50.852;3.816;2022-09-09T11:34:45;19.00;99.90
22765;DHT22;11549;50.852;3.816;2022-09-09T11:37:29;19.00;99.90
22765;DHT22;11549;50.852;3.816;2022-09-09T11:40:09;19.00;99.90
22765;DHT22;11549;50.852;3.816;2022-09-09T11:42:42;18.90;99.90
22765;DHT22;11549;50.852;3.816;2022-09-09T11:45:19;19.00;99.90
22765;DHT22;11549;50.852;3.816;2022-09-09T11:47:53;19.20;99.90
22765;DHT22;11549;50.852;3.816;2022-09-09T11:50:33;19.30;99.90
22765;DHT22;11549;50.852;3.816;2022-09-09T11:56:06;19.20;99.90
22765;DHT22;11549;50.852;3.816;2022-09-09T11:58:40;19.40;99.90
22765;DHT22;11549;50.852;3.816;2022-09-09T12:01:27;19.70;99.90
22765;DHT22;11549;50.852;3.816;2022-09-09T12:04:34;19.60;99.90
22765;DHT22;11549;50.852;3.816;2022-09-09T12:07:20;19.60;99.90
22765;DHT22;11549;50.852;3.816;2022-09-09T12:09:57;19.60;99.90
22765;DHT22;11549;50.852;3.816;2022-09-09T12:12:30;19.60;99.90
22765;DHT22;11549;50.852;3.816;2022-09-09T12:15:24;19.50;99.90
22765;DHT22;11549;50.852;3.816;2022-09-09T12:17:56;19.50;99.90
22765;DHT22;11549;50.852;3.816;2022-09-09T12:20:34;19.40;99.90
22765;DHT22;11549;50.852;3.816;2022-09-09T12:23:20;19.50;99.90
22765;DHT22;11549;50.852;3.816;2022-09-09T12:26:20;19.60;99.90
22765;DHT22;11549;50.852;3.816;2022-09-09T12:28:57;19.60;99.90
22765;DHT22;11549;50.852;3.816;2022-09-09T12:31:33;19.60;99.90
22765;DHT22;11549;50.852;3.816;2022-09-09T12:34:15;19.50;99.90
22765;DHT22;11549;50.852;3.816;2022-09-09T12:36:49;19.40;99.90
22765;DHT22;11549;50.852;3.816;2022-09-09T12:39:24;19.40;99.90
22765;DHT22;11549;50.852;3.816;2022-09-09T12:41:57;19.50;99.90
22765;DHT22;11549;50.852;3.816;2022-09-09T12:44:26;19.60;99.90
22765;DHT22;11549;50.852;3.816;2022-09-09T12:46:57;19.70;99.90
22765;DHT22;11549;50.852;3.816;2022-09-09T12:49:30;19.70;99.90
22765;DHT22;11549;50.852;3.816;2022-09-09T12:52:03;19.80;99.90
22765;DHT22;11549;50.852;3.816;2022-09-09T12:54:34;19.80;99.90
22765;DHT22;11549;50.852;3.816;2022-09-09T12:57:05;19.90;99.90
22765;DHT22;11549;50.852;3.816;2022-09-09T12:59:37;20.10;99.90
22765;DHT22;11549;50.852;3.816;2022-09-09T13:02:18;20.20;99.90
22765;DHT22;11549;50.852;3.816;2022-09-09T13:04:47;20.20;99.90
22765;DHT22;11549;50.852;3.816;2022-09-09T13:07:18;20.30;99.90
22765;DHT22;11549;50.852;3.816;2022-09-09T13:09:47;20.30;99.90
22765;DHT22;11549;50.852;3.816;2022-09-09T13:12:19;20.40;99.90
22765;DHT22;11549;50.852;3.816;2022-09-09T13:14:51;20.50;99.90
22765;DHT22;11549;50.852;3.816;2022-09-09T13:17:23;20.50;99.90
22765;DHT22;11549;50.852;3.816;2022-09-09T13:19:52;20.60;99.90
22765;DHT22;11549;50.852;3.816;2022-09-09T13:22:27;20.80;99.90
22765;DHT22;11549;50.852;3.816;2022-09-09T13:25:03;20.80;99.90
22765;DHT22;11549;50.852;3.816;2022-09-09T13:27:36;20.80;99.90
22765;DHT22;11549;50.852;3.816;2022-09-09T13:30:27;21.00;99.90
22765;DHT22;11549;50.852;3.816;2022-09-09T13:33:01;21.60;99.90
22765;DHT22;11549;50.852;3.816;2022-09-09T13:35:30;22.00;99.90
22765;DHT22;11549;50.852;3.816;2022-09-09T13:38:06;22.30;99.90
22765;DHT22;11549;50.852;3.816;2022-09-09T13:40:35;22.60;99.90
22765;DHT22;11549;50.852;3.816;2022-09-09T13:43:18;22.90;99.90
22765;DHT22;11549;50.852;3.816;2022-09-09T13:45:58;23.10;99.90
22765;DHT22;11549;50.852;3.816;2022-09-09T13:48:28;23.10;99.90
22765;DHT22;11549;50.852;3.816;2022-09-09T13:50:58;22.90;99.90
22765;DHT22;11549;50.852;3.816;2022-09-09T13:53:27;22.80;99.90
22765;DHT22;11549;50.852;3.816;2022-09-09T13:55:58;22.80;99.90
22765;DHT22;11549;50.852;3.816;2022-09-09T13:58:28;22.80;99.90
22765;DHT22;11549;50.852;3.816;2022-09-09T14:00:56;23.00;99.90
22765;DHT22;11549;50.852;3.816;2022-09-09T14:03:25;23.10;99.90
22765;DHT22;11549;50.852;3.816;2022-09-09T14:05:54;23.10;99.90
22765;DHT22;11549;50.852;3.816;2022-09-09T14:08:25;23.20;99.90
22765;DHT22;11549;50.852;3.816;2022-09-09T14:10:55;23.00;99.90
22765;DHT22;11549;50.852;3.816;2022-09-09T14:13:25;23.10;99.90
22765;DHT22;11549;50.852;3.816;2022-09-09T14:15:55;23.10;99.90
22765;DHT22;11549;50.852;3.816;2022-09-09T14:18:24;23.00;99.90
22765;DHT22;11549;50.852;3.816;2022-09-09T14:20:52;22.90;99.90
22765;DHT22;11549;50.852;3.816;2022-09-09T14:23:20;22.70;99.90
22765;DHT22;11549;50.852;3.816;2022-09-09T14:25:51;22.60;99.90
22765;DHT22;11549;50.852;3.816;2022-09-09T14:28:19;22.80;99.90
22765;DHT22;11549;50.852;3.816;2022-09-09T14:31:09;23.10;99.90
22765;DHT22;11549;50.852;3.816;2022-09-09T14:33:37;23.20;99.90
22765;DHT22;11549;50.852;3.816;2022-09-09T14:36:06;23.10;99.90
22765;DHT22;11549;50.852;3.816;2022-09-09T14:38:38;23.10;99.90
22765;DHT22;11549;50.852;3.816;2022-09-09T14:41:13;23.00;99.90
22765;DHT22;11549;50.852;3.816;2022-09-09T14:43:43;23.00;99.90
22765;DHT22;11549;50.852;3.816;2022-09-09T14:46:15;22.90;99.90
22765;DHT22;11549;50.852;3.816;2022-09-09T14:48:44;22.70;99.90
22765;DHT22;11549;50.852;3.816;2022-09-09T14:51:17;22.70;99.90
22765;DHT22;11549;50.852;3.816;2022-09-09T14:53:46;22.50;99.90
22765;DHT22;11549;50.852;3.816;2022-09-09T14:56:17;22.40;99.90
22765;DHT22;11549;50.852;3.816;2022-09-09T14:58:45;22.50;99.90
22765;DHT22;11549;50.852;3.816;2022-09-09T15:01:17;22.50;99.90
22765;DHT22;11549;50.852;3.816;2022-09-09T15:03:50;22.70;99.90
22765;DHT22;11549;50.852;3.816;2022-09-09T15:06:19;22.90;99.90
22765;DHT22;11549;50.852;3.816;2022-09-09T15:08:50;22.70;99.90
22765;DHT22;11549;50.852;3.816;2022-09-09T15:11:20;22.50;99.90
22765;DHT22;11549;50.852;3.816;2022-09-09T15:13:51;22.30;99.90
22765;DHT22;11549;50.852;3.816;2022-09-09T15:16:23;22.10;99.90
22765;DHT22;11549;50.852;3.816;2022-09-09T15:18:53;22.00;99.90
22765;DHT22;11549;50.852;3.816;2022-09-09T15:21:23;21.90;99.90
22765;DHT22;11549;50.852;3.816;2022-09-09T15:23:51;21.90;99.90
22765;DHT22;11549;50.852;3.816;2022-09-09T15:26:20;21.60;99.90
22765;DHT22;11549;50.852;3.816;2022-09-09T15:28:49;21.50;99.90
22765;DHT22;11549;50.852;3.816;2022-09-09T15:31:21;21.40;99.90
22765;DHT22;11549;50.852;3.816;2022-09-09T15:33:50;21.20;99.90
22765;DHT22;11549;50.852;3.816;2022-09-09T15:36:20;21.10;99.90
22765;DHT22;11549;50.852;3.816;2022-09-09T15:38:49;21.00;99.90
22765;DHT22;11549;50.852;3.816;2022-09-09T15:41:19;20.70;99.90
22765;DHT22;11549;50.852;3.816;2022-09-09T15:43:50;20.50;99.90
22765;DHT22;11549;50.852;3.816;2022-09-09T15:46:25;20.40;99.90
22765;DHT22;11549;50.852;3.816;2022-09-09T15:48:56;20.20;99.90
22765;DHT22;11549;50.852;3.816;2022-09-09T15:51:26;20.10;99.90
22765;DHT22;11549;50.852;3.816;2022-09-09T15:54:09;20.00;99.90
22765;DHT22;11549;50.852;3.816;2022-09-09T15:56:40;19.80;99.90
22765;DHT22;11549;50.852;3.816;2022-09-09T15:59:08;19.70;99.90
22765;DHT22;11549;50.852;3.816;2022-09-09T16:01:39;19.60;99.90
22765;DHT22;11549;50.852;3.816;2022-09-09T16:04:09;19.60;99.90
22765;DHT22;11549;50.852;3.816;2022-09-09T16:06:38;19.60;99.90
22765;DHT22;11549;50.852;3.816;2022-09-09T16:09:07;19.70;99.90
22765;DHT22;11549;50.852;3.816;2022-09-09T16:11:37;19.90;99.90
22765;DHT22;11549;50.852;3.816;2022-09-09T16:14:07;20.00;99.90
22765;DHT22;11549;50.852;3.816;2022-09-09T16:16:35;20.10;99.90
22765;DHT22;11549;50.852;3.816;2022-09-09T16:19:07;20.20;99.90
22765;DHT22;11549;50.852;3.816;2022-09-09T16:21:37;20.30;99.90
22765;DHT22;11549;50.852;3.816;2022-09-09T16:24:08;20.20;99.90